Time;durP1;ratioP1;P1;durP2;ratioP2;P2;SDS_P1;SDS_P2;PMS_P1;PMS_P2;Temp;Humidity;BMP_temperature;BMP_pressure;BME280_temperature;BME280_humidity;BME280_pressure;Samples;Min_cycle;Max_cycle;Signal;HPM_P1;HPM_P2
2020/12/15 00:00:08;;;;;;;13.75;10.38;;;2.30;97.00;;;;;;5049706;28;20507;-75
2020/12/15 00:02:35;;;;;;;14.55;11.32;;;2.30;96.40;;;;;;5053341;28;20400;-74
2020/12/15 00:05:02;;;;;;;18.15;13.90;;;2.20;96.50;;;;;;5052458;28;20512;-75
2020/12/15 00:07:28;;;;;;;18.70;12.40;;;2.10;96.80;;;;;;5033207;28;20495;-75
2020/12/15 00:09:54;;;;;;;18.70;13.50;;;2.30;96.30;;;;;;5042552;28;20414;-74
2020/12/15 00:12:21;;;;;;;15.07;11.70;;;2.20;96.10;;;;;;5070828;28;20469;-74
2020/12/15 00:14:52;;;;;;;19.40;10.07;;;2.20;96.30;;;;;;5067270;28;20476;-74
2020/12/15 00:17:18;;;;;;;13.85;10.50;;;2.30;95.70;;;;;;5052595;28;20448;-74
2020/12/15 00:19:45;;;;;;;20.57;11.97;;;2.30;95.80;;;;;;5067351;28;20917;-75
2020/12/15 00:22:14;;;;;;;19.17;12.95;;;2.10;96.00;;;;;;5053446;28;20447;-74
2020/12/15 00:24:44;;;;;;;20.55;14.00;;;1.90;96.50;;;;;;5049398;28;20449;-74
2020/12/15 00:27:10;;;;;;;19.90;13.57;;;1.80;96.80;;;;;;5053038;28;20488;-74
2020/12/15 00:29:38;;;;;;;23.23;14.88;;;1.80;97.20;;;;;;5050863;28;20764;-74
2020/12/15 00:32:05;;;;;;;26.13;14.90;;;1.80;97.30;;;;;;5052824;28;20409;-74
2020/12/15 00:34:31;;;;;;;21.02;14.65;;;1.80;97.40;;;;;;5068434;28;20429;-74
2020/12/15 00:37:02;;;;;;;27.67;15.30;;;1.70;97.40;;;;;;5091024;28;20412;-74
2020/12/15 00:39:31;;;;;;;21.83;14.77;;;1.90;97.60;;;;;;5076894;28;20413;-74
2020/12/15 00:41:59;;;;;;;23.42;14.82;;;1.80;97.10;;;;;;5073180;28;20703;-74
2020/12/15 00:44:26;;;;;;;22.65;15.43;;;1.80;97.30;;;;;;5076356;28;20501;-74
2020/12/15 00:46:52;;;;;;;25.60;16.85;;;1.80;97.10;;;;;;5073221;28;20433;-74
2020/12/15 00:49:19;;;;;;;25.23;15.38;;;1.80;97.30;;;;;;5076429;28;20504;-75
2020/12/15 00:51:48;;;;;;;24.58;16.08;;;1.70;97.20;;;;;;5073190;28;20907;-75
2020/12/15 00:54:16;;;;;;;20.85;14.88;;;1.70;97.40;;;;;;5076422;28;20503;-74
2020/12/15 00:56:43;;;;;;;20.17;12.23;;;1.70;97.50;;;;;;5090712;28;20398;-74
2020/12/15 00:59:10;;;;;;;16.38;11.40;;;1.80;97.60;;;;;;5088561;28;20404;-74
2020/12/15 01:01:39;;;;;;;15.38;10.98;;;1.90;97.20;;;;;;5054336;28;20790;-74
2020/12/15 01:04:08;;;;;;;16.10;11.63;;;1.90;96.70;;;;;;5076164;28;20804;-74
2020/12/15 01:06:34;;;;;;;17.63;12.23;;;1.80;96.90;;;;;;5093949;28;20470;-75
2020/12/15 01:09:01;;;;;;;16.40;10.95;;;1.70;97.20;;;;;;5090438;28;20511;-75
2020/12/15 01:11:29;;;;;;;14.30;10.43;;;1.80;97.40;;;;;;5075977;28;20433;-74
2020/12/15 01:13:58;;;;;;;15.90;10.35;;;1.90;96.90;;;;;;5072998;28;20446;-75
2020/12/15 01:16:24;;;;;;;12.50;9.52;;;1.90;96.60;;;;;;5076134;28;20778;-75
2020/12/15 01:18:53;;;;;;;18.48;11.10;;;1.90;96.80;;;;;;5061155;28;20444;-74
2020/12/15 01:21:29;;;;;;;20.95;10.55;;;1.90;96.90;;;;;;5055678;28;20395;-74
2020/12/15 01:23:56;;;;;;;17.40;10.67;;;2.00;96.40;;;;;;5063254;28;20479;-74
2020/12/15 01:26:22;;;;;;;16.23;9.65;;;1.90;96.60;;;;;;5075970;28;20459;-74
2020/12/15 01:28:51;;;;;;;14.98;9.98;;;2.00;96.40;;;;;;5072491;28;20796;-74
2020/12/15 01:31:25;;;;;;;14.85;10.38;;;2.10;96.00;;;;;;5076153;28;20455;-75
2020/12/15 01:33:52;;;;;;;15.85;11.75;;;1.90;96.20;;;;;;5067710;28;20510;-74
2020/12/15 01:36:28;;;;;;;15.60;11.70;;;1.70;96.70;;;;;;5072898;28;20400;-75
2020/12/15 01:38:57;;;;;;;14.52;10.95;;;1.70;97.10;;;;;;5055889;28;20413;-74
2020/12/15 01:41:27;;;;;;;14.65;11.15;;;1.70;97.10;;;;;;5075796;28;20417;-74
2020/12/15 01:43:59;;;;;;;17.30;11.70;;;1.70;96.90;;;;;;5090410;28;20426;-74
2020/12/15 01:46:27;;;;;;;14.20;10.77;;;1.70;97.00;;;;;;5055289;28;20400;-74
2020/12/15 01:48:55;;;;;;;16.70;10.95;;;1.70;97.00;;;;;;5073061;28;20403;-74
2020/12/15 01:51:25;;;;;;;14.53;11.13;;;1.70;96.90;;;;;;5088471;28;20463;-74
2020/12/15 01:53:54;;;;;;;14.90;11.50;;;1.60;97.10;;;;;;5075377;28;20429;-75
2020/12/15 01:56:24;;;;;;;17.85;11.68;;;1.60;97.20;;;;;;5089568;28;20479;-74
2020/12/15 01:58:58;;;;;;;15.48;11.63;;;1.60;97.20;;;;;;5090155;28;20520;-74
2020/12/15 02:01:25;;;;;;;16.48;11.85;;;1.60;97.30;;;;;;5083375;28;20464;-74
2020/12/15 02:03:54;;;;;;;16.55;10.88;;;1.60;97.10;;;;;;5093052;28;20426;-74
2020/12/15 02:06:24;;;;;;;15.05;11.90;;;1.60;97.00;;;;;;5071509;28;20459;-75
2020/12/15 02:08:50;;;;;;;15.23;11.73;;;1.60;97.10;;;;;;5074843;28;20991;-74
2020/12/15 02:11:17;;;;;;;18.10;11.65;;;1.60;97.30;;;;;;5071356;28;20868;-74
2020/12/15 02:13:47;;;;;;;16.40;12.43;;;1.60;97.00;;;;;;5092976;28;20437;-75
2020/12/15 02:16:14;;;;;;;18.23;12.15;;;1.60;97.00;;;;;;5071459;28;20535;-74
2020/12/15 02:18:41;;;;;;;16.00;12.07;;;1.50;97.10;;;;;;5092190;28;20438;-74
2020/12/15 02:21:08;;;;;;;17.90;12.52;;;1.50;97.30;;;;;;5070657;28;20858;-75
2020/12/15 02:23:35;;;;;;;19.80;13.55;;;1.50;97.40;;;;;;5054328;28;20426;-74
2020/12/15 02:26:10;;;;;;;21.40;12.97;;;1.50;97.50;;;;;;5054734;28;20472;-75
2020/12/15 02:28:37;;;;;;;18.07;12.80;;;1.60;97.50;;;;;;5052564;28;20403;-74
2020/12/15 02:31:04;;;;;;;17.83;13.20;;;1.60;97.20;;;;;;5054741;28;20412;-75
2020/12/15 02:33:33;;;;;;;18.13;12.93;;;1.60;97.60;;;;;;5067774;28;20438;-74
2020/12/15 02:35:59;;;;;;;16.75;12.40;;;1.50;97.50;;;;;;5074554;28;20484;-75
2020/12/15 02:38:28;;;;;;;18.35;12.52;;;1.60;97.60;;;;;;5088705;28;20446;-75
2020/12/15 02:40:57;;;;;;;17.55;12.70;;;1.60;97.60;;;;;;5092212;28;20401;-74
2020/12/15 02:43:23;;;;;;;17.00;12.35;;;1.60;97.50;;;;;;5064178;28;20436;-74
2020/12/15 02:45:54;;;;;;;17.77;11.02;;;1.80;97.20;;;;;;5074538;28;20394;-75
2020/12/15 02:48:23;;;;;;;14.85;11.10;;;1.90;97.00;;;;;;5088365;28;20584;-74
2020/12/15 02:50:49;;;;;;;15.88;11.55;;;1.80;96.50;;;;;;5074338;28;20420;-74
2020/12/15 02:53:18;;;;;;;15.15;11.05;;;1.70;96.60;;;;;;5071017;28;20413;-74
2020/12/15 02:55:45;;;;;;;14.87;11.47;;;1.90;96.70;;;;;;5091470;28;20482;-74
2020/12/15 02:58:11;;;;;;;23.45;11.63;;;1.90;96.20;;;;;;5088415;28;20410;-75
2020/12/15 03:00:40;;;;;;;23.80;11.73;;;1.90;96.20;;;;;;5073924;28;20879;-74
2020/12/15 03:03:07;;;;;;;16.98;11.77;;;2.00;96.00;;;;;;5054219;28;20446;-74
2020/12/15 03:05:33;;;;;;;16.30;11.60;;;1.90;96.30;;;;;;5069418;28;20426;-75
2020/12/15 03:08:01;;;;;;;18.50;11.00;;;1.90;96.00;;;;;;5074305;28;20402;-75
2020/12/15 03:10:30;;;;;;;24.55;11.10;;;1.90;96.30;;;;;;5070359;28;21040;-74
2020/12/15 03:12:56;;;;;;;15.70;10.88;;;1.90;96.20;;;;;;5073572;28;20429;-75
2020/12/15 03:15:25;;;;;;;17.27;11.43;;;1.80;96.10;;;;;;5088338;28;20544;-74
2020/12/15 03:17:54;;;;;;;14.88;10.48;;;1.70;96.30;;;;;;5091434;28;20483;-74
2020/12/15 03:20:20;;;;;;;12.02;9.63;;;1.70;96.50;;;;;;5088370;28;20474;-74
2020/12/15 03:22:47;;;;;;;11.85;9.23;;;1.80;95.90;;;;;;5091336;28;20421;-75
2020/12/15 03:25:19;;;;;;;11.63;9.05;;;1.70;96.10;;;;;;5087498;28;20769;-75
2020/12/15 03:27:47;;;;;;;11.88;9.18;;;1.70;96.10;;;;;;5090899;28;20409;-75
2020/12/15 03:30:13;;;;;;;12.75;9.43;;;1.60;96.40;;;;;;5070359;28;20510;-74
2020/12/15 03:32:39;;;;;;;10.70;8.53;;;1.40;96.50;;;;;;5073241;28;20448;-75
2020/12/15 03:35:06;;;;;;;11.95;9.75;;;1.40;96.70;;;;;;5090139;28;20834;-74
2020/12/15 03:37:35;;;;;;;12.70;9.90;;;1.50;96.70;;;;;;5071907;28;20447;-74
2020/12/15 03:40:03;;;;;;;12.70;9.98;;;1.40;96.60;;;;;;5073417;28;20406;-74
2020/12/15 03:42:31;;;;;;;12.77;9.88;;;1.50;96.50;;;;;;5087516;28;20401;-74
2020/12/15 03:44:58;;;;;;;13.05;10.35;;;1.60;96.20;;;;;;5072914;28;20836;-74
2020/12/15 03:47:24;;;;;;;13.63;10.45;;;1.50;96.20;;;;;;5070054;28;20711;-74
2020/12/15 03:49:50;;;;;;;14.47;11.33;;;1.50;96.30;;;;;;5073382;28;20486;-75
2020/12/15 03:52:17;;;;;;;14.38;11.40;;;1.40;96.50;;;;;;5086998;28;20406;-75
2020/12/15 03:54:43;;;;;;;15.48;11.88;;;1.40;96.80;;;;;;5073320;28;20440;-74
2020/12/15 03:57:12;;;;;;;14.98;11.13;;;1.40;96.80;;;;;;5070109;28;20454;-74
2020/12/15 03:59:43;;;;;;;16.40;12.50;;;1.50;96.50;;;;;;5090717;28;20437;-74
2020/12/15 04:02:09;;;;;;;16.30;12.70;;;1.50;96.70;;;;;;5069482;28;20402;-74
2020/12/15 04:04:36;;;;;;;16.77;12.95;;;1.40;96.80;;;;;;5072875;28;20422;-74
2020/12/15 04:07:05;;;;;;;16.25;12.82;;;1.60;96.70;;;;;;5086324;28;20746;-74
2020/12/15 04:09:31;;;;;;;16.25;13.30;;;1.60;96.60;;;;;;5090620;28;20417;-75
2020/12/15 04:11:57;;;;;;;16.98;13.60;;;1.50;96.70;;;;;;5090921;28;20394;-74
2020/12/15 04:14:27;;;;;;;16.63;12.57;;;1.50;96.80;;;;;;5069633;28;20410;-74
2020/12/15 04:16:54;;;;;;;15.97;12.43;;;1.50;96.90;;;;;;5090876;28;20402;-75
2020/12/15 04:19:22;;;;;;;15.32;11.80;;;1.50;96.90;;;;;;5069884;28;20433;-74
2020/12/15 04:21:49;;;;;;;18.17;13.30;;;1.50;96.80;;;;;;5090454;28;20433;-75
2020/12/15 04:24:15;;;;;;;18.48;13.23;;;1.50;96.80;;;;;;5069326;28;20422;-74
2020/12/15 04:26:42;;;;;;;17.88;13.07;;;1.50;96.70;;;;;;5090975;28;20407;-75
2020/12/15 04:29:08;;;;;;;16.25;12.40;;;1.50;96.70;;;;;;5069260;28;20448;-74
2020/12/15 04:31:37;;;;;;;18.47;13.57;;;1.50;96.50;;;;;;5090211;28;20413;-74
2020/12/15 04:34:06;;;;;;;17.47;13.30;;;1.50;96.60;;;;;;5069450;28;20882;-75
2020/12/15 04:36:32;;;;;;;16.98;13.10;;;1.50;96.70;;;;;;5072651;28;20455;-74
2020/12/15 04:39:01;;;;;;;16.58;12.55;;;1.50;96.70;;;;;;5087453;28;20857;-75
2020/12/15 04:41:28;;;;;;;16.98;13.07;;;1.50;96.70;;;;;;5090644;28;20402;-74
2020/12/15 04:43:56;;;;;;;16.52;13.05;;;1.60;96.90;;;;;;5072822;28;20443;-74
2020/12/15 04:46:24;;;;;;;15.95;12.32;;;1.60;96.60;;;;;;5087191;28;20775;-75
2020/12/15 04:49:20;;;;;;;18.75;12.70;;;1.50;96.70;;;;;;5072895;28;20796;-73
2020/12/15 04:51:58;;;;;;;17.83;13.13;;;1.60;96.60;;;;;;5066944;28;20983;-74
2020/12/15 04:54:30;;;;;;;17.55;12.60;;;1.60;96.40;;;;;;5069981;28;20422;-74
2020/12/15 04:57:02;;;;;;;16.92;12.68;;;1.50;96.40;;;;;;5068656;28;20397;-75
2020/12/15 04:59:30;;;;;;;16.55;12.98;;;1.60;96.50;;;;;;5082657;28;20403;-74
2020/12/15 05:01:58;;;;;;;20.63;14.05;;;1.50;96.50;;;;;;5068154;28;20416;-75
2020/12/15 05:04:25;;;;;;;18.80;13.45;;;1.60;96.60;;;;;;5069861;28;20434;-75
2020/12/15 05:06:54;;;;;;;16.85;12.95;;;1.60;96.60;;;;;;5066055;28;20444;-74
2020/12/15 05:09:29;;;;;;;17.80;13.60;;;1.60;96.60;;;;;;5070126;28;20453;-74
2020/12/15 05:11:56;;;;;;;18.50;14.20;;;1.60;96.60;;;;;;5078658;28;20877;-74
2020/12/15 05:14:23;;;;;;;19.77;14.97;;;1.70;96.70;;;;;;5072686;28;20417;-74
2020/12/15 05:16:53;;;;;;;19.30;14.75;;;1.70;96.50;;;;;;5069084;28;20434;-74
2020/12/15 05:19:20;;;;;;;19.13;14.53;;;1.70;96.50;;;;;;5074251;28;20418;-74
2020/12/15 05:22:00;;;;;;;20.83;14.82;;;1.70;96.40;;;;;;5072475;28;20542;-75
2020/12/15 05:24:31;;;;;;;23.17;15.70;;;1.90;96.40;;;;;;5093751;28;20479;-74
2020/12/15 05:26:59;;;;;;;23.67;16.52;;;1.90;96.20;;;;;;5090092;28;20503;-75
2020/12/15 05:29:27;;;;;;;25.77;17.17;;;1.80;96.10;;;;;;5091985;28;20414;-75
2020/12/15 05:31:58;;;;;;;27.58;16.67;;;1.80;96.30;;;;;;5089733;28;20925;-74
2020/12/15 05:34:26;;;;;;;24.70;17.27;;;1.80;96.40;;;;;;5075433;28;20445;-74
2020/12/15 05:37:00;;;;;;;22.52;16.42;;;1.80;96.40;;;;;;5093104;28;20434;-74
2020/12/15 05:39:28;;;;;;;24.23;16.80;;;1.70;96.50;;;;;;5090937;28;20810;-74
2020/12/15 05:42:08;;;;;;;24.17;18.02;;;1.80;96.50;;;;;;5093312;28;20624;-74
2020/12/15 05:44:39;;;;;;;24.80;17.30;;;1.80;96.60;;;;;;5071831;28;20736;-75
2020/12/15 05:47:08;;;;;;;60.58;32.35;;;1.80;96.60;;;;;;5055418;28;20466;-75
2020/12/15 05:49:40;;;;;;;38.33;23.80;;;1.80;96.40;;;;;;5086190;28;20428;-74
2020/12/15 05:52:09;;;;;;;31.85;20.83;;;1.80;96.50;;;;;;5092117;28;20413;-74
2020/12/15 05:54:36;;;;;;;27.88;19.95;;;1.80;96.50;;;;;;5089021;28;20496;-74
2020/12/15 05:57:07;;;;;;;28.17;19.70;;;1.80;96.50;;;;;;5092995;28;20441;-75
2020/12/15 05:59:34;;;;;;;27.90;19.55;;;1.90;96.50;;;;;;5063126;28;20925;-74
2020/12/15 06:02:10;;;;;;;24.90;18.40;;;2.10;96.40;;;;;;5054908;28;20487;-75
2020/12/15 06:04:40;;;;;;;26.43;19.13;;;2.20;95.80;;;;;;5078607;28;20513;-74
2020/12/15 06:07:09;;;;;;;27.02;19.90;;;2.20;95.50;;;;;;5075231;28;20459;-75
2020/12/15 06:09:36;;;;;;;28.13;20.60;;;2.10;95.80;;;;;;5089338;28;20463;-74
2020/12/15 06:12:05;;;;;;;27.20;20.55;;;2.00;96.00;;;;;;5093051;28;20432;-74
2020/12/15 06:14:31;;;;;;;29.40;20.75;;;2.00;96.10;;;;;;5089158;28;20471;-75
2020/12/15 06:16:57;;;;;;;29.85;21.35;;;2.00;96.20;;;;;;5092019;28;20440;-75
2020/12/15 06:19:30;;;;;;;31.95;22.90;;;2.00;96.20;;;;;;5072681;28;20459;-74
2020/12/15 06:21:58;;;;;;;32.08;22.60;;;2.00;96.30;;;;;;5071923;28;20411;-74
2020/12/15 06:24:27;;;;;;;37.40;24.15;;;2.00;96.30;;;;;;5054449;28;20428;-74
2020/12/15 06:26:59;;;;;;;32.58;23.30;;;2.00;96.20;;;;;;5065835;28;20751;-74
2020/12/15 06:29:36;;;;;;;31.10;22.57;;;2.00;96.20;;;;;;5070589;28;20411;-74
2020/12/15 06:32:11;;;;;;;32.92;23.50;;;2.10;96.20;;;;;;5071108;28;20417;-74
2020/12/15 06:34:42;;;;;;;31.33;23.10;;;2.10;96.20;;;;;;5073399;28;20435;-74
2020/12/15 06:37:09;;;;;;;30.25;21.60;;;2.10;96.10;;;;;;5089002;28;20412;-75
2020/12/15 06:39:37;;;;;;;30.58;22.02;;;2.10;95.90;;;;;;5074878;28;20398;-76
2020/12/15 06:42:07;;;;;;;31.43;22.63;;;2.10;96.00;;;;;;5070712;28;20406;-74
2020/12/15 06:44:36;;;;;;;31.35;22.20;;;2.10;96.00;;;;;;5074333;28;20464;-74
2020/12/15 06:47:04;;;;;;;33.17;22.70;;;2.10;96.10;;;;;;5066940;28;20404;-74
2020/12/15 06:49:35;;;;;;;31.85;23.08;;;2.10;96.10;;;;;;5072024;28;20398;-76
2020/12/15 06:52:07;;;;;;;31.83;23.00;;;2.10;96.00;;;;;;5070501;28;20419;-74
2020/12/15 06:54:36;;;;;;;32.38;22.80;;;2.10;96.00;;;;;;5073714;28;20418;-74
2020/12/15 06:57:04;;;;;;;35.17;23.57;;;2.10;95.90;;;;;;5088313;28;20425;-76
2020/12/15 06:59:35;;;;;;;38.95;24.60;;;2.10;96.00;;;;;;5066074;28;20493;-74
2020/12/15 07:02:13;;;;;;;35.30;24.10;;;2.10;96.20;;;;;;5052315;28;20419;-74
2020/12/15 07:04:48;;;;;;;35.72;24.77;;;2.10;96.10;;;;;;5091547;28;20865;-75
2020/12/15 07:07:16;;;;;;;34.28;24.02;;;2.10;96.20;;;;;;5087123;28;20854;-75
2020/12/15 07:09:44;;;;;;;34.47;24.65;;;2.20;96.10;;;;;;5073075;28;20422;-74
2020/12/15 07:12:15;;;;;;;36.58;25.83;;;2.20;96.00;;;;;;5091976;28;20406;-75
2020/12/15 07:14:51;;;;;;;37.42;25.38;;;2.20;96.10;;;;;;5069486;28;20443;-74
2020/12/15 07:17:18;;;;;;;36.92;25.48;;;2.20;96.10;;;;;;5071245;28;20407;-74
2020/12/15 07:19:44;;;;;;;38.50;25.38;;;2.20;96.00;;;;;;5066749;28;20425;-74
2020/12/15 07:22:13;;;;;;;36.92;25.00;;;2.20;96.00;;;;;;5091606;28;20418;-74
2020/12/15 07:24:40;;;;;;;35.05;24.00;;;2.30;96.00;;;;;;5087511;28;20931;-74
2020/12/15 07:27:08;;;;;;;35.93;23.90;;;2.30;95.90;;;;;;5091866;28;20445;-75
2020/12/15 07:29:34;;;;;;;32.88;23.20;;;2.30;95.90;;;;;;5086783;28;20801;-74
2020/12/15 07:32:01;;;;;;;34.38;23.02;;;2.30;95.80;;;;;;5090969;28;20442;-74
2020/12/15 07:34:28;;;;;;;33.57;22.27;;;2.30;95.70;;;;;;5069826;28;20432;-74
2020/12/15 07:36:54;;;;;;;31.75;21.10;;;2.40;95.30;;;;;;5090780;28;20781;-74
2020/12/15 07:39:23;;;;;;;32.78;20.67;;;2.40;95.30;;;;;;5087456;28;20878;-75
2020/12/15 07:42:03;;;;;;;29.73;19.93;;;2.50;95.00;;;;;;5072999;28;20463;-74
2020/12/15 07:44:44;;;;;;;27.97;18.87;;;2.60;94.90;;;;;;5087452;28;20418;-74
2020/12/15 07:47:11;;;;;;;26.88;18.80;;;2.60;94.70;;;;;;5090329;28;20434;-75
2020/12/15 07:49:40;;;;;;;26.43;18.30;;;2.70;94.40;;;;;;5069992;28;20405;-74
2020/12/15 07:52:09;;;;;;;27.80;19.73;;;2.60;94.40;;;;;;5073004;28;20467;-74
2020/12/15 07:54:35;;;;;;;37.30;24.25;;;2.60;94.80;;;;;;5073265;28;20430;-75
2020/12/15 07:57:02;;;;;;;34.42;22.92;;;2.60;95.10;;;;;;5069743;28;20402;-75
2020/12/15 07:59:32;;;;;;;35.75;23.65;;;2.60;95.20;;;;;;5068529;28;20460;-74
2020/12/15 08:01:59;;;;;;;33.42;22.85;;;2.70;95.20;;;;;;5087304;28;20445;-75
2020/12/15 08:04:26;;;;;;;29.27;20.53;;;2.70;95.20;;;;;;5073308;28;20433;-74
2020/12/15 08:06:52;;;;;;;33.67;22.08;;;2.80;94.80;;;;;;5086439;28;20406;-74
2020/12/15 08:09:19;;;;;;;34.28;23.73;;;2.80;94.80;;;;;;5072940;28;20451;-75
2020/12/15 08:11:47;;;;;;;37.90;24.83;;;2.80;94.50;;;;;;5068456;28;20414;-74
2020/12/15 08:14:17;;;;;;;34.80;23.65;;;2.70;94.70;;;;;;5073019;28;20402;-74
2020/12/15 08:16:47;;;;;;;34.13;23.98;;;2.70;95.00;;;;;;5069552;28;20715;-74
2020/12/15 08:19:16;;;;;;;36.60;23.92;;;2.70;94.80;;;;;;5090302;28;20762;-74
2020/12/15 08:21:50;;;;;;;35.20;25.00;;;2.70;95.00;;;;;;5069928;28;20417;-74
2020/12/15 08:24:26;;;;;;;36.83;24.30;;;2.80;94.90;;;;;;5072880;28;20456;-74
2020/12/15 08:26:53;;;;;;;32.60;23.33;;;2.80;94.90;;;;;;5069781;28;20414;-74
2020/12/15 08:29:23;;;;;;;35.38;22.98;;;2.80;94.60;;;;;;5090466;28;20414;-74
2020/12/15 08:31:50;;;;;;;33.28;21.85;;;2.80;94.60;;;;;;5071117;28;20398;-75
2020/12/15 08:34:20;;;;;;;31.98;21.98;;;2.80;94.40;;;;;;5089105;28;20413;-74
2020/12/15 08:36:53;;;;;;;30.27;21.75;;;2.80;94.30;;;;;;5072820;28;20438;-74
2020/12/15 08:39:24;;;;;;;30.60;22.05;;;2.80;94.20;;;;;;5065661;28;20863;-73
2020/12/15 08:41:53;;;;;;;32.72;22.75;;;2.80;94.20;;;;;;5069851;28;20408;-74
2020/12/15 08:44:21;;;;;;;33.75;23.23;;;2.80;94.50;;;;;;5082961;28;20789;-75
2020/12/15 08:46:54;;;;;;;33.90;22.88;;;2.80;94.60;;;;;;5071903;28;20696;-74
2020/12/15 08:49:21;;;;;;;36.72;23.80;;;2.90;94.50;;;;;;5086577;28;20406;-75
2020/12/15 08:51:50;;;;;;;32.80;23.67;;;2.90;94.40;;;;;;5072131;28;20479;-75
2020/12/15 08:54:19;;;;;;;34.20;23.70;;;2.90;94.40;;;;;;5088629;28;20421;-75
2020/12/15 08:56:47;;;;;;;34.72;24.27;;;2.80;94.50;;;;;;5075861;28;20472;-75
2020/12/15 08:59:18;;;;;;;33.03;23.33;;;2.80;94.70;;;;;;5066597;28;20721;-75
2020/12/15 09:01:46;;;;;;;36.42;23.80;;;2.80;94.80;;;;;;5056173;28;20434;-75
2020/12/15 09:04:23;;;;;;;35.67;23.27;;;2.90;94.90;;;;;;5056307;28;20413;-74
2020/12/15 09:06:50;;;;;;;33.45;22.77;;;3.00;94.80;;;;;;5075713;28;20442;-75
2020/12/15 09:09:28;;;;;;;31.42;21.42;;;3.00;94.50;;;;;;5072180;28;20476;-75
2020/12/15 09:11:55;;;;;;;30.15;20.50;;;3.10;94.30;;;;;;5093422;28;20410;-74
2020/12/15 09:14:22;;;;;;;25.30;18.30;;;3.10;94.00;;;;;;5071970;28;20542;-75
2020/12/15 09:16:51;;;;;;;25.45;17.95;;;3.10;93.90;;;;;;5075635;28;20417;-74
2020/12/15 09:19:23;;;;;;;21.43;15.17;;;3.20;94.00;;;;;;5076058;28;20452;-75
2020/12/15 09:22:06;;;;;;;19.73;13.90;;;3.20;93.70;;;;;;5090026;28;20413;-74
2020/12/15 09:24:42;;;;;;;16.90;12.07;;;3.20;93.60;;;;;;5092742;28;20444;-74
2020/12/15 09:27:22;;;;;;;15.55;11.73;;;3.10;93.30;;;;;;5089728;28;20738;-74
2020/12/15 09:29:49;;;;;;;18.57;12.27;;;3.10;93.20;;;;;;5075967;28;20434;-75
2020/12/15 09:32:19;;;;;;;17.05;12.63;;;3.10;93.20;;;;;;5089196;28;20501;-75
2020/12/15 09:34:46;;;;;;;18.48;13.10;;;3.00;93.20;;;;;;5091784;28;20426;-74
2020/12/15 09:37:13;;;;;;;20.88;13.82;;;3.10;93.10;;;;;;5076243;28;20469;-74
2020/12/15 09:39:40;;;;;;;17.90;13.50;;;3.20;93.20;;;;;;5073266;28;20404;-74
2020/12/15 09:42:20;;;;;;;20.95;14.15;;;3.10;93.20;;;;;;5047675;28;20404;-74
2020/12/15 09:44:47;;;;;;;20.27;14.52;;;3.10;93.20;;;;;;5055849;28;20434;-74
2020/12/15 09:47:14;;;;;;;22.33;16.02;;;3.20;93.20;;;;;;5080050;28;20398;-75
2020/12/15 09:49:40;;;;;;;23.77;17.27;;;3.10;93.30;;;;;;5075929;28;20402;-74
2020/12/15 09:52:07;;;;;;;24.87;17.77;;;3.20;93.50;;;;;;5072380;28;20402;-74
2020/12/15 09:54:33;;;;;;;25.13;18.27;;;3.20;93.50;;;;;;5075423;28;20880;-74
2020/12/15 09:57:03;;;;;;;26.63;19.20;;;3.20;93.60;;;;;;5069834;28;20498;-75
2020/12/15 09:59:30;;;;;;;28.17;19.23;;;3.30;93.30;;;;;;5071699;28;20423;-75
2020/12/15 10:01:58;;;;;;;28.85;19.25;;;3.30;93.40;;;;;;5070420;28;20504;-75
2020/12/15 10:04:25;;;;;;;27.08;19.55;;;3.30;93.30;;;;;;5074251;28;20406;-75
2020/12/15 10:06:51;;;;;;;31.13;19.73;;;3.30;93.20;;;;;;5091771;28;20410;-75
2020/12/15 10:09:20;;;;;;;27.05;19.83;;;3.30;93.30;;;;;;5089656;28;20467;-71
2020/12/15 10:11:49;;;;;;;28.23;20.00;;;3.30;93.10;;;;;;5092944;28;20394;-75
2020/12/15 10:14:16;;;;;;;26.73;19.15;;;3.30;93.30;;;;;;5071380;28;20410;-74
2020/12/15 10:16:42;;;;;;;28.15;19.25;;;3.20;93.30;;;;;;5075001;28;20498;-75
2020/12/15 10:19:11;;;;;;;28.48;19.45;;;3.20;93.20;;;;;;5089553;28;20410;-74
2020/12/15 10:21:39;;;;;;;26.88;18.60;;;3.30;93.60;;;;;;5092658;28;20449;-74
2020/12/15 10:24:06;;;;;;;28.27;19.00;;;3.30;93.20;;;;;;5071686;28;20715;-74
2020/12/15 10:26:32;;;;;;;27.98;18.95;;;3.30;93.20;;;;;;5074639;28;20441;-75
2020/12/15 10:29:01;;;;;;;25.15;18.45;;;3.40;93.20;;;;;;5088571;28;20433;-74
2020/12/15 10:31:28;;;;;;;27.37;18.13;;;3.40;93.10;;;;;;5074812;28;20456;-74
2020/12/15 10:33:59;;;;;;;25.40;18.13;;;3.30;93.00;;;;;;5070985;28;20747;-74
2020/12/15 10:36:25;;;;;;;24.80;17.02;;;3.30;93.00;;;;;;5074427;28;21012;-75
2020/12/15 10:38:53;;;;;;;26.08;17.73;;;3.40;92.90;;;;;;5092171;28;20558;-75
2020/12/15 10:41:25;;;;;;;23.03;16.77;;;3.30;92.80;;;;;;5070555;28;20419;-74
2020/12/15 10:43:52;;;;;;;21.02;16.05;;;3.30;93.00;;;;;;5071636;28;20481;-75
2020/12/15 10:46:25;;;;;;;26.60;17.50;;;3.30;93.00;;;;;;5071019;28;20762;-74
2020/12/15 10:48:52;;;;;;;25.80;17.23;;;3.30;93.00;;;;;;5091768;28;20405;-74
2020/12/15 10:51:19;;;;;;;22.67;16.30;;;3.30;93.00;;;;;;5069566;28;20425;-75
2020/12/15 10:53:46;;;;;;;22.20;16.50;;;3.30;93.00;;;;;;5074431;28;20406;-75
2020/12/15 10:56:14;;;;;;;24.07;16.67;;;3.30;92.80;;;;;;5088933;28;20784;-75
2020/12/15 10:58:40;;;;;;;24.70;17.00;;;3.30;92.80;;;;;;5090522;28;20870;-74
2020/12/15 11:01:07;;;;;;;25.38;16.75;;;3.40;92.90;;;;;;5070798;28;20402;-74
2020/12/15 11:03:34;;;;;;;21.90;15.75;;;3.40;92.90;;;;;;5091927;28;20397;-74
2020/12/15 11:06:06;;;;;;;22.83;16.17;;;3.50;92.50;;;;;;5067394;28;20428;-74
2020/12/15 11:08:32;;;;;;;25.07;17.20;;;3.50;92.80;;;;;;5073846;28;20410;-74
2020/12/15 11:10:59;;;;;;;23.52;16.70;;;3.50;92.80;;;;;;5070584;28;20418;-74
2020/12/15 11:13:26;;;;;;;23.95;17.33;;;3.60;92.40;;;;;;5091243;28;20462;-74
2020/12/15 11:15:52;;;;;;;24.63;17.90;;;3.60;92.40;;;;;;5091055;28;20495;-75
2020/12/15 11:18:18;;;;;;;23.95;16.92;;;3.60;92.50;;;;;;5086386;28;20429;-74
2020/12/15 11:20:47;;;;;;;25.75;17.98;;;3.60;92.30;;;;;;5073487;28;20397;-75
2020/12/15 11:23:14;;;;;;;23.75;17.00;;;3.60;92.80;;;;;;5069707;28;20501;-74
2020/12/15 11:25:47;;;;;;;25.70;17.67;;;3.80;92.30;;;;;;5071949;28;20430;-74
2020/12/15 11:28:16;;;;;;;23.42;16.05;;;3.80;93.00;;;;;;5087623;28;20470;-75
2020/12/15 11:30:45;;;;;;;24.50;16.23;;;3.80;91.70;;;;;;5072698;28;20403;-75
2020/12/15 11:33:11;;;;;;;21.83;16.17;;;3.80;91.70;;;;;;5069553;28;20426;-75
2020/12/15 11:35:38;;;;;;;23.30;16.20;;;3.80;91.80;;;;;;5090532;28;21264;-75
2020/12/15 11:38:05;;;;;;;25.00;16.43;;;3.70;91.90;;;;;;5087549;28;20410;-74
2020/12/15 11:40:32;;;;;;;25.35;17.33;;;3.70;91.90;;;;;;5091475;28;20410;-75
2020/12/15 11:43:01;;;;;;;24.45;16.35;;;3.70;92.00;;;;;;5087638;28;20409;-74
2020/12/15 11:45:32;;;;;;;22.73;16.07;;;3.70;92.00;;;;;;5090720;28;20458;-75
2020/12/15 11:48:00;;;;;;;21.75;15.60;;;3.80;91.90;;;;;;5088459;28;20401;-74
2020/12/15 11:50:29;;;;;;;22.83;15.83;;;3.90;91.30;;;;;;5073053;28;20398;-75
2020/12/15 11:52:58;;;;;;;25.80;17.17;;;3.80;91.40;;;;;;5073456;28;20402;-75
2020/12/15 11:55:25;;;;;;;23.73;17.40;;;3.70;91.80;;;;;;5070147;28;20421;-75
2020/12/15 11:57:53;;;;;;;23.95;17.00;;;3.70;91.90;;;;;;5073395;28;20410;-75
2020/12/15 12:00:19;;;;;;;23.00;16.57;;;3.60;92.30;;;;;;5087403;28;20497;-75
2020/12/15 12:02:46;;;;;;;24.50;16.80;;;3.70;92.20;;;;;;5090920;28;20501;-75
2020/12/15 12:05:16;;;;;;;22.67;16.63;;;3.70;92.30;;;;;;5085949;28;20430;-76
2020/12/15 12:07:42;;;;;;;24.20;16.45;;;3.60;92.30;;;;;;5090575;28;20474;-76
2020/12/15 12:10:10;;;;;;;22.50;15.48;;;3.70;92.10;;;;;;5086749;28;20479;-77
2020/12/15 12:12:36;;;;;;;23.92;16.80;;;3.80;91.90;;;;;;5072803;28;20394;-77
2020/12/15 12:15:06;;;;;;;22.33;16.02;;;3.70;92.10;;;;;;5082988;28;20439;-77
2020/12/15 12:17:35;;;;;;;22.67;16.40;;;3.80;92.30;;;;;;5069512;28;20452;-76
2020/12/15 12:20:05;;;;;;;23.52;16.15;;;3.80;92.20;;;;;;5068576;28;20400;-76
2020/12/15 12:22:31;;;;;;;23.03;16.10;;;3.80;92.00;;;;;;5072510;28;20475;-77
2020/12/15 12:25:04;;;;;;;22.03;15.83;;;3.80;91.70;;;;;;5072617;28;20866;-77
2020/12/15 12:27:31;;;;;;;23.80;16.63;;;3.80;91.80;;;;;;5072140;28;20425;-77
2020/12/15 12:30:04;;;;;;;22.33;15.10;;;3.80;91.90;;;;;;5077478;28;20405;-76
2020/12/15 12:32:31;;;;;;;20.77;14.90;;;3.80;91.90;;;;;;5073018;28;20727;-77
2020/12/15 12:34:58;;;;;;;22.13;15.57;;;3.80;91.80;;;;;;5076133;28;20426;-76
2020/12/15 12:37:25;;;;;;;22.15;15.60;;;3.80;91.80;;;;;;5072374;28;20425;-77
2020/12/15 12:39:52;;;;;;;23.17;16.30;;;3.70;92.00;;;;;;5092909;28;20782;-77
2020/12/15 12:42:20;;;;;;;21.80;16.15;;;3.70;92.20;;;;;;5090683;28;20406;-77
2020/12/15 12:44:46;;;;;;;22.08;15.90;;;3.80;91.80;;;;;;5094051;28;20941;-76